sensor_id;sensor_type;location;lat;lon;timestamp;pressure;altitude;pressure_sealevel;temperature;humidity
39309;BME280;26019;47.510;19.122;2023-02-02T02:48:29;99900.22;;;3.15;100.00
39309;BME280;26019;47.510;19.122;2023-02-02T02:58:41;99898.44;;;3.09;100.00
39309;BME280;26019;47.510;19.122;2023-02-02T03:08:51;99887.06;;;2.92;100.00
39309;BME280;26019;47.510;19.122;2023-02-02T03:18:55;99881.03;;;2.88;100.00
39309;BME280;26019;47.510;19.122;2023-02-02T03:28:59;99891.88;;;2.76;100.00
39309;BME280;26019;47.510;19.122;2023-02-02T03:39:07;99881.47;;;2.67;100.00
39309;BME280;26019;47.510;19.122;2023-02-02T03:49:09;99904.22;;;2.54;100.00
39309;BME280;26019;47.510;19.122;2023-02-02T03:59:13;99899.94;;;2.53;100.00
39309;BME280;26019;47.510;19.122;2023-02-02T04:09:23;99876.03;;;2.48;100.00
39309;BME280;26019;47.510;19.122;2023-02-02T04:19:24;99891.75;;;2.27;100.00
39309;BME280;26019;47.510;19.122;2023-02-02T04:29:26;99929.78;;;2.18;100.00
39309;BME280;26019;47.510;19.122;2023-02-02T04:39:28;99934.97;;;2.21;100.00
39309;BME280;26019;47.510;19.122;2023-02-02T04:49:31;99953.97;;;1.96;100.00
39309;BME280;26019;47.510;19.122;2023-02-02T04:59:33;99944.72;;;2.01;100.00
39309;BME280;26019;47.510;19.122;2023-02-02T05:09:38;99947.91;;;1.90;100.00
39309;BME280;26019;47.510;19.122;2023-02-02T05:19:41;99968.56;;;2.03;100.00
39309;BME280;26019;47.510;19.122;2023-02-02T05:29:53;99990.81;;;2.08;100.00
39309;BME280;26019;47.510;19.122;2023-02-02T05:39:56;100001.16;;;2.16;100.00
39309;BME280;26019;47.510;19.122;2023-02-02T05:49:58;99995.84;;;2.07;100.00
39309;BME280;26019;47.510;19.122;2023-02-02T06:00:03;99992.28;;;1.99;100.00
39309;BME280;26019;47.510;19.122;2023-02-02T06:10:06;100003.25;;;1.96;100.00
39309;BME280;26019;47.510;19.122;2023-02-02T06:20:08;100008.59;;;1.72;100.00
39309;BME280;26019;47.510;19.122;2023-02-02T06:30:11;99984.00;;;1.72;100.00
39309;BME280;26019;47.510;19.122;2023-02-02T06:40:16;99988.69;;;1.90;100.00
39309;BME280;26019;47.510;19.122;2023-02-02T06:50:20;100004.13;;;1.97;100.00
39309;BME280;26019;47.510;19.122;2023-02-02T07:00:22;100020.00;;;2.23;100.00
39309;BME280;26019;47.510;19.122;2023-02-02T07:10:24;100036.00;;;2.52;100.00
39309;BME280;26019;47.510;19.122;2023-02-02T07:20:47;100049.13;;;2.69;100.00
39309;BME280;26019;47.510;19.122;2023-02-02T07:30:51;100033.34;;;2.88;100.00
39309;BME280;26019;47.510;19.122;2023-02-02T07:40:54;100054.19;;;3.09;100.00
39309;BME280;26019;47.510;19.122;2023-02-02T07:51:04;100045.19;;;3.28;100.00
39309;BME280;26019;47.510;19.122;2023-02-02T08:01:08;100045.88;;;3.64;100.00
39309;BME280;26019;47.510;19.122;2023-02-02T08:11:14;100035.34;;;3.98;100.00
39309;BME280;26019;47.510;19.122;2023-02-02T08:21:18;100031.44;;;4.22;100.00
39309;BME280;26019;47.510;19.122;2023-02-02T08:31:39;100026.88;;;4.57;96.46
39309;BME280;26019;47.510;19.122;2023-02-02T08:41:42;100037.56;;;4.31;97.06
39309;BME280;26019;47.510;19.122;2023-02-02T08:51:45;100052.31;;;4.46;96.68
39309;BME280;26019;47.510;19.122;2023-02-02T09:01:48;100080.97;;;4.84;94.47
39309;BME280;26019;47.510;19.122;2023-02-02T09:11:50;100096.50;;;4.95;86.78
39309;BME280;26019;47.510;19.122;2023-02-02T09:21:53;100117.69;;;5.50;81.25
39309;BME280;26019;47.510;19.122;2023-02-02T09:31:56;100111.81;;;5.61;77.26
39309;BME280;26019;47.510;19.122;2023-02-02T10:02:44;100107.06;;;6.00;66.02
39309;BME280;26019;47.510;19.122;2023-02-02T10:13:16;100119.13;;;6.05;65.69
39309;BME280;26019;47.510;19.122;2023-02-02T10:23:24;100111.59;;;6.25;66.39
39309;BME280;26019;47.510;19.122;2023-02-02T10:33:37;100097.81;;;7.70;61.59
39309;BME280;26019;47.510;19.122;2023-02-02T10:43:55;100108.03;;;9.24;52.76
39309;BME280;26019;47.510;19.122;2023-02-02T10:54:15;100102.66;;;9.72;50.72
39309;BME280;26019;47.510;19.122;2023-02-02T11:04:21;100098.88;;;11.10;46.30
39309;BME280;26019;47.510;19.122;2023-02-02T11:14:55;100087.25;;;10.70;47.83
39309;BME280;26019;47.510;19.122;2023-02-02T11:35:27;100101.81;;;6.97;59.78
39309;BME280;26019;47.510;19.122;2023-02-02T11:45:35;100106.16;;;7.07;60.56
39309;BME280;26019;47.510;19.122;2023-02-02T11:55:37;100114.19;;;6.27;64.00
39309;BME280;26019;47.510;19.122;2023-02-02T12:05:39;100132.03;;;6.15;65.24
39309;BME280;26019;47.510;19.122;2023-02-02T12:47:12;100115.31;;;5.67;70.97
39309;BME280;26019;47.510;19.122;2023-02-02T12:57:40;100121.03;;;5.45;72.50
39309;BME280;26019;47.510;19.122;2023-02-02T13:07:51;100122.75;;;5.47;73.58
39309;BME280;26019;47.510;19.122;2023-02-02T13:18:03;100131.28;;;5.45;74.87
39309;BME280;26019;47.510;19.122;2023-02-02T13:28:16;100123.50;;;5.37;74.30
39309;BME280;26019;47.510;19.122;2023-02-02T13:38:22;100129.63;;;5.48;73.47
39309;BME280;26019;47.510;19.122;2023-02-02T13:48:58;100140.69;;;5.46;72.75
39309;BME280;26019;47.510;19.122;2023-02-02T14:09:40;100153.59;;;5.53;73.95
39309;BME280;26019;47.510;19.122;2023-02-02T14:19:48;100161.97;;;5.40;76.82
39309;BME280;26019;47.510;19.122;2023-02-02T14:50:12;100166.00;;;5.21;77.20
39309;BME280;26019;47.510;19.122;2023-02-02T15:00:25;100167.78;;;5.27;77.08
39309;BME280;26019;47.510;19.122;2023-02-02T15:11:02;100181.31;;;5.18;76.64
39309;BME280;26019;47.510;19.122;2023-02-02T15:21:25;100185.50;;;5.11;76.72
39309;BME280;26019;47.510;19.122;2023-02-02T15:31:29;100198.16;;;5.02;78.04
39309;BME280;26019;47.510;19.122;2023-02-02T15:41:36;100216.81;;;4.93;81.38
39309;BME280;26019;47.510;19.122;2023-02-02T15:51:42;100223.47;;;4.80;83.08
39309;BME280;26019;47.510;19.122;2023-02-02T16:01:47;100221.44;;;4.60;84.95
39309;BME280;26019;47.510;19.122;2023-02-02T16:11:51;100239.03;;;4.42;89.16
39309;BME280;26019;47.510;19.122;2023-02-02T16:21:55;100244.66;;;4.22;94.00
39309;BME280;26019;47.510;19.122;2023-02-02T16:32:01;100254.16;;;4.29;94.83
39309;BME280;26019;47.510;19.122;2023-02-02T16:52:28;100290.28;;;4.02;100.00
39309;BME280;26019;47.510;19.122;2023-02-02T17:02:33;100291.06;;;3.99;100.00
39309;BME280;26019;47.510;19.122;2023-02-02T17:12:36;100316.41;;;3.87;100.00
39309;BME280;26019;47.510;19.122;2023-02-02T17:22:40;100323.84;;;3.76;100.00
39309;BME280;26019;47.510;19.122;2023-02-02T17:32:46;100313.56;;;3.73;100.00
39309;BME280;26019;47.510;19.122;2023-02-02T17:42:51;100317.53;;;3.60;100.00
39309;BME280;26019;47.510;19.122;2023-02-02T17:52:53;100352.59;;;3.66;100.00
39309;BME280;26019;47.510;19.122;2023-02-02T18:03:06;100365.94;;;3.54;100.00
39309;BME280;26019;47.510;19.122;2023-02-02T18:13:19;100387.13;;;3.50;100.00
39309;BME280;26019;47.510;19.122;2023-02-02T18:23:21;100418.38;;;3.38;100.00
39309;BME280;26019;47.510;19.122;2023-02-02T18:33:25;100430.88;;;3.27;100.00
39309;BME280;26019;47.510;19.122;2023-02-02T18:43:28;100419.78;;;3.26;100.00
39309;BME280;26019;47.510;19.122;2023-02-02T18:53:39;100424.16;;;3.32;100.00
39309;BME280;26019;47.510;19.122;2023-02-02T19:03:49;100441.75;;;3.20;100.00
39309;BME280;26019;47.510;19.122;2023-02-02T19:13:52;100456.16;;;3.18;100.00
39309;BME280;26019;47.510;19.122;2023-02-02T19:23:55;100449.97;;;3.08;100.00
39309;BME280;26019;47.510;19.122;2023-02-02T19:33:57;100469.41;;;3.04;100.00
39309;BME280;26019;47.510;19.122;2023-02-02T19:44:09;100476.03;;;2.96;100.00
39309;BME280;26019;47.510;19.122;2023-02-02T19:54:42;100493.41;;;2.79;100.00
39309;BME280;26019;47.510;19.122;2023-02-02T20:04:52;100520.19;;;2.63;100.00
39309;BME280;26019;47.510;19.122;2023-02-02T20:15:01;100515.31;;;2.42;100.00
39309;BME280;26019;47.510;19.122;2023-02-02T20:25:20;100542.75;;;2.50;100.00
39309;BME280;26019;47.510;19.122;2023-02-02T20:45:38;100561.59;;;2.27;100.00
39309;BME280;26019;47.510;19.122;2023-02-02T20:55:41;100553.94;;;2.27;100.00
39309;BME280;26019;47.510;19.122;2023-02-02T21:05:48;100570.78;;;2.21;100.00
39309;BME280;26019;47.510;19.122;2023-02-02T21:15:51;100596.06;;;2.15;100.00
39309;BME280;26019;47.510;19.122;2023-02-02T21:26:00;100587.09;;;2.01;100.00
39309;BME280;26019;47.510;19.122;2023-02-02T21:36:22;100602.09;;;1.91;100.00
39309;BME280;26019;47.510;19.122;2023-02-02T21:46:34;100606.97;;;1.85;100.00
39309;BME280;26019;47.510;19.122;2023-02-02T21:56:38;100629.09;;;1.86;100.00
39309;BME280;26019;47.510;19.122;2023-02-02T22:06:44;100651.13;;;1.84;100.00
39309;BME280;26019;47.510;19.122;2023-02-02T22:16:52;100660.94;;;1.73;100.00
39309;BME280;26019;47.510;19.122;2023-02-02T22:26:57;100688.53;;;1.61;100.00
39309;BME280;26019;47.510;19.122;2023-02-02T22:36:59;100696.84;;;1.57;100.00
39309;BME280;26019;47.510;19.122;2023-02-02T22:47:02;100724.09;;;1.35;100.00
39309;BME280;26019;47.510;19.122;2023-02-02T22:57:04;100742.88;;;1.39;100.00
39309;BME280;26019;47.510;19.122;2023-02-02T23:07:06;100749.78;;;1.41;100.00
39309;BME280;26019;47.510;19.122;2023-02-02T23:17:10;100747.25;;;1.41;100.00
39309;BME280;26019;47.510;19.122;2023-02-02T23:27:13;100769.25;;;1.39;100.00
39309;BME280;26019;47.510;19.122;2023-02-02T23:37:15;100784.91;;;1.27;100.00
39309;BME280;26019;47.510;19.122;2023-02-02T23:47:17;100784.66;;;1.21;100.00
39309;BME280;26019;47.510;19.122;2023-02-02T23:57:19;100793.00;;;0.96;100.00
